Marlow, Georgia
Current Conditions -  °F | °C
As of 7:53 AM on Thursday 18 Dec 2014 (Local Time) from KSAV Reporting Station
Overcast Overcast  
Wind Chill:   Ceiling: 14000
Heat Index:   Visibility: 10mi
Dew Point:   Wind: 5mph
Humidity: 82%   Direction: 280°W
Pressure: 30.17"   Gusts: NA
Location:  32.3167°N, 81.3986°W
Report Text: KSAV 181253Z 28004KT 10SM BKN140 BKN170 OVC250 06/03 A3017 RMK AO2 SLP217 BINOVC T00560028
Loading
Personal Weather Stations






























Interactive Weather Map New forecast layout! Learn more

10-Day Weather Forecast

Advertisements
Track Severe Weather on mobile